sensor_id;sensor_type;location;lat;lon;timestamp;temperature;humidity
31597;DHT22;18201;50.978;7.034;2023-04-15T00:00:07;6.90;99.90
31597;DHT22;18201;50.978;7.034;2023-04-15T00:00:39;6.90;99.90
31597;DHT22;18201;50.978;7.034;2023-04-15T00:01:10;6.90;99.90
31597;DHT22;18201;50.978;7.034;2023-04-15T00:01:42;6.90;99.90
31597;DHT22;18201;50.978;7.034;2023-04-15T00:02:15;6.90;99.90
31597;DHT22;18201;50.978;7.034;2023-04-15T00:02:46;6.90;99.90
31597;DHT22;18201;50.978;7.034;2023-04-15T00:03:19;6.90;99.90
31597;DHT22;18201;50.978;7.034;2023-04-15T00:03:51;6.90;99.90
31597;DHT22;18201;50.978;7.034;2023-04-15T00:04:23;6.90;99.90
31597;DHT22;18201;50.978;7.034;2023-04-15T00:04:55;6.90;99.90
31597;DHT22;18201;50.978;7.034;2023-04-15T00:05:26;6.90;99.90
31597;DHT22;18201;50.978;7.034;2023-04-15T00:05:57;6.80;99.90
31597;DHT22;18201;50.978;7.034;2023-04-15T00:06:29;6.80;99.90
31597;DHT22;18201;50.978;7.034;2023-04-15T00:07:00;6.80;99.90
31597;DHT22;18201;50.978;7.034;2023-04-15T00:07:32;6.80;99.90
31597;DHT22;18201;50.978;7.034;2023-04-15T00:08:05;6.80;99.90
31597;DHT22;18201;50.978;7.034;2023-04-15T00:08:37;6.80;99.90
31597;DHT22;18201;50.978;7.034;2023-04-15T00:09:08;6.80;99.90
31597;DHT22;18201;50.978;7.034;2023-04-15T00:09:41;6.80;99.90
31597;DHT22;18201;50.978;7.034;2023-04-15T00:10:12;6.80;99.90
31597;DHT22;18201;50.978;7.034;2023-04-15T00:10:43;6.70;99.90
31597;DHT22;18201;50.978;7.034;2023-04-15T00:11:16;6.80;99.90
31597;DHT22;18201;50.978;7.034;2023-04-15T00:11:49;6.80;99.90
31597;DHT22;18201;50.978;7.034;2023-04-15T00:12:20;6.80;99.90
31597;DHT22;18201;50.978;7.034;2023-04-15T00:12:52;6.80;99.90
31597;DHT22;18201;50.978;7.034;2023-04-15T00:13:23;6.80;99.90
31597;DHT22;18201;50.978;7.034;2023-04-15T00:13:54;6.80;99.90
31597;DHT22;18201;50.978;7.034;2023-04-15T00:14:26;6.80;99.90
31597;DHT22;18201;50.978;7.034;2023-04-15T00:14:57;6.80;99.90
31597;DHT22;18201;50.978;7.034;2023-04-15T00:15:28;6.70;99.90
31597;DHT22;18201;50.978;7.034;2023-04-15T00:16:00;6.80;99.90
31597;DHT22;18201;50.978;7.034;2023-04-15T00:16:31;6.80;99.90
31597;DHT22;18201;50.978;7.034;2023-04-15T00:17:03;6.80;99.90
31597;DHT22;18201;50.978;7.034;2023-04-15T00:17:35;6.80;99.90
31597;DHT22;18201;50.978;7.034;2023-04-15T00:18:07;6.80;99.90
31597;DHT22;18201;50.978;7.034;2023-04-15T00:18:38;6.80;99.90
31597;DHT22;18201;50.978;7.034;2023-04-15T00:19:10;6.80;99.90
31597;DHT22;18201;50.978;7.034;2023-04-15T00:19:41;6.70;99.90
31597;DHT22;18201;50.978;7.034;2023-04-15T00:20:13;6.80;99.90
31597;DHT22;18201;50.978;7.034;2023-04-15T00:20:45;6.70;99.90
31597;DHT22;18201;50.978;7.034;2023-04-15T00:21:16;6.70;99.90
31597;DHT22;18201;50.978;7.034;2023-04-15T00:21:47;6.70;99.90
31597;DHT22;18201;50.978;7.034;2023-04-15T00:22:19;6.80;99.90
31597;DHT22;18201;50.978;7.034;2023-04-15T00:22:50;6.70;99.90
31597;DHT22;18201;50.978;7.034;2023-04-15T00:23:22;6.70;99.90
31597;DHT22;18201;50.978;7.034;2023-04-15T00:23:54;6.70;99.90
31597;DHT22;18201;50.978;7.034;2023-04-15T00:24:25;6.70;99.90
31597;DHT22;18201;50.978;7.034;2023-04-15T00:24:56;6.70;99.90
31597;DHT22;18201;50.978;7.034;2023-04-15T00:25:28;6.70;99.90
31597;DHT22;18201;50.978;7.034;2023-04-15T00:25:58;6.70;99.90
31597;DHT22;18201;50.978;7.034;2023-04-15T00:26:30;6.70;99.90
31597;DHT22;18201;50.978;7.034;2023-04-15T00:27:01;6.70;99.90
31597;DHT22;18201;50.978;7.034;2023-04-15T00:27:33;6.70;99.90
31597;DHT22;18201;50.978;7.034;2023-04-15T00:28:04;6.70;99.90
31597;DHT22;18201;50.978;7.034;2023-04-15T00:28:36;6.70;99.90
31597;DHT22;18201;50.978;7.034;2023-04-15T00:29:06;6.70;99.90
31597;DHT22;18201;50.978;7.034;2023-04-15T00:29:37;6.70;99.90
31597;DHT22;18201;50.978;7.034;2023-04-15T00:30:10;6.80;99.90
31597;DHT22;18201;50.978;7.034;2023-04-15T00:30:44;6.70;99.90
31597;DHT22;18201;50.978;7.034;2023-04-15T00:31:15;6.70;99.90
31597;DHT22;18201;50.978;7.034;2023-04-15T00:31:47;6.70;99.90
31597;DHT22;18201;50.978;7.034;2023-04-15T00:32:18;6.70;99.90
31597;DHT22;18201;50.978;7.034;2023-04-15T00:32:49;6.70;99.90
31597;DHT22;18201;50.978;7.034;2023-04-15T00:33:22;6.70;99.90
31597;DHT22;18201;50.978;7.034;2023-04-15T00:33:53;6.70;99.90
31597;DHT22;18201;50.978;7.034;2023-04-15T00:34:24;6.70;99.90
31597;DHT22;18201;50.978;7.034;2023-04-15T00:34:55;6.70;99.90
31597;DHT22;18201;50.978;7.034;2023-04-15T00:35:27;6.70;99.90
31597;DHT22;18201;50.978;7.034;2023-04-15T00:35:58;6.70;99.90
31597;DHT22;18201;50.978;7.034;2023-04-15T00:36:29;6.60;99.90
31597;DHT22;18201;50.978;7.034;2023-04-15T00:37:01;6.60;99.90
31597;DHT22;18201;50.978;7.034;2023-04-15T00:37:32;6.60;99.90
31597;DHT22;18201;50.978;7.034;2023-04-15T00:38:05;6.60;99.90
31597;DHT22;18201;50.978;7.034;2023-04-15T00:38:38;6.60;99.90
31597;DHT22;18201;50.978;7.034;2023-04-15T00:39:09;6.60;99.90
31597;DHT22;18201;50.978;7.034;2023-04-15T00:39:41;6.60;99.90
31597;DHT22;18201;50.978;7.034;2023-04-15T00:40:12;6.60;99.90
31597;DHT22;18201;50.978;7.034;2023-04-15T00:40:43;6.60;99.90
31597;DHT22;18201;50.978;7.034;2023-04-15T00:41:15;6.60;99.90
31597;DHT22;18201;50.978;7.034;2023-04-15T00:41:48;6.60;99.90
31597;DHT22;18201;50.978;7.034;2023-04-15T00:42:19;6.60;99.90
31597;DHT22;18201;50.978;7.034;2023-04-15T00:42:51;6.50;99.90
31597;DHT22;18201;50.978;7.034;2023-04-15T00:43:22;6.50;99.90
31597;DHT22;18201;50.978;7.034;2023-04-15T00:43:53;6.50;99.90
31597;DHT22;18201;50.978;7.034;2023-04-15T00:44:24;6.50;99.90
31597;DHT22;18201;50.978;7.034;2023-04-15T00:44:55;6.50;99.90
31597;DHT22;18201;50.978;7.034;2023-04-15T00:45:28;6.50;99.90
31597;DHT22;18201;50.978;7.034;2023-04-15T00:46:00;6.50;99.90
31597;DHT22;18201;50.978;7.034;2023-04-15T00:46:38;6.50;99.90
31597;DHT22;18201;50.978;7.034;2023-04-15T00:47:10;6.50;99.90
31597;DHT22;18201;50.978;7.034;2023-04-15T00:47:43;6.50;99.90
31597;DHT22;18201;50.978;7.034;2023-04-15T00:48:14;6.40;99.90
31597;DHT22;18201;50.978;7.034;2023-04-15T00:48:46;6.40;99.90
31597;DHT22;18201;50.978;7.034;2023-04-15T00:49:18;6.40;99.90
31597;DHT22;18201;50.978;7.034;2023-04-15T00:49:49;6.40;99.90
31597;DHT22;18201;50.978;7.034;2023-04-15T00:50:21;6.40;99.90
31597;DHT22;18201;50.978;7.034;2023-04-15T00:51:00;6.40;99.90
31597;DHT22;18201;50.978;7.034;2023-04-15T00:51:31;6.40;99.90
31597;DHT22;18201;50.978;7.034;2023-04-15T00:52:03;6.40;99.90
31597;DHT22;18201;50.978;7.034;2023-04-15T00:52:35;6.40;99.90
31597;DHT22;18201;50.978;7.034;2023-04-15T00:53:08;6.40;99.90
31597;DHT22;18201;50.978;7.034;2023-04-15T00:53:40;6.40;99.90
31597;DHT22;18201;50.978;7.034;2023-04-15T00:54:13;6.40;99.90
31597;DHT22;18201;50.978;7.034;2023-04-15T00:54:46;6.40;99.90
31597;DHT22;18201;50.978;7.034;2023-04-15T00:55:18;6.40;99.90
31597;DHT22;18201;50.978;7.034;2023-04-15T00:55:49;6.30;99.90
31597;DHT22;18201;50.978;7.034;2023-04-15T00:56:21;6.30;99.90
31597;DHT22;18201;50.978;7.034;2023-04-15T00:56:53;6.30;99.90
31597;DHT22;18201;50.978;7.034;2023-04-15T00:57:27;6.30;99.90
31597;DHT22;18201;50.978;7.034;2023-04-15T00:57:58;6.30;99.90
31597;DHT22;18201;50.978;7.034;2023-04-15T00:58:29;6.30;99.90
31597;DHT22;18201;50.978;7.034;2023-04-15T00:59:01;6.30;99.90
31597;DHT22;18201;50.978;7.034;2023-04-15T00:59:33;6.30;99.90
31597;DHT22;18201;50.978;7.034;2023-04-15T01:00:05;6.30;99.90
31597;DHT22;18201;50.978;7.034;2023-04-15T01:00:39;6.30;99.90
31597;DHT22;18201;50.978;7.034;2023-04-15T01:01:10;6.30;99.90
31597;DHT22;18201;50.978;7.034;2023-04-15T01:01:41;6.30;99.90
31597;DHT22;18201;50.978;7.034;2023-04-15T01:02:14;6.20;99.90
31597;DHT22;18201;50.978;7.034;2023-04-15T01:02:45;6.30;1.00
31597;DHT22;18201;50.978;7.034;2023-04-15T01:03:16;6.30;1.00
31597;DHT22;18201;50.978;7.034;2023-04-15T01:03:48;6.30;1.00
31597;DHT22;18201;50.978;7.034;2023-04-15T01:04:22;6.20;1.00
31597;DHT22;18201;50.978;7.034;2023-04-15T01:04:54;6.30;1.00
31597;DHT22;18201;50.978;7.034;2023-04-15T01:05:27;6.20;1.00
31597;DHT22;18201;50.978;7.034;2023-04-15T01:05:59;6.20;1.00
31597;DHT22;18201;50.978;7.034;2023-04-15T01:06:30;6.20;1.00
31597;DHT22;18201;50.978;7.034;2023-04-15T01:07:03;6.30;1.00
31597;DHT22;18201;50.978;7.034;2023-04-15T01:07:34;6.20;1.00
31597;DHT22;18201;50.978;7.034;2023-04-15T01:08:05;6.20;1.00
31597;DHT22;18201;50.978;7.034;2023-04-15T01:08:37;6.20;1.00
31597;DHT22;18201;50.978;7.034;2023-04-15T01:09:10;6.20;1.00
31597;DHT22;18201;50.978;7.034;2023-04-15T01:09:41;6.20;1.00
31597;DHT22;18201;50.978;7.034;2023-04-15T01:10:13;6.20;1.00
31597;DHT22;18201;50.978;7.034;2023-04-15T01:10:44;6.20;1.00
31597;DHT22;18201;50.978;7.034;2023-04-15T01:11:16;6.20;1.00
31597;DHT22;18201;50.978;7.034;2023-04-15T01:11:49;6.20;1.00
31597;DHT22;18201;50.978;7.034;2023-04-15T01:12:20;6.10;1.00
31597;DHT22;18201;50.978;7.034;2023-04-15T01:12:51;6.20;1.00
31597;DHT22;18201;50.978;7.034;2023-04-15T01:13:23;6.10;1.00
31597;DHT22;18201;50.978;7.034;2023-04-15T01:13:55;6.20;1.00
31597;DHT22;18201;50.978;7.034;2023-04-15T01:14:26;6.20;1.00
31597;DHT22;18201;50.978;7.034;2023-04-15T01:14:58;6.20;1.00
31597;DHT22;18201;50.978;7.034;2023-04-15T01:15:29;6.20;1.00
31597;DHT22;18201;50.978;7.034;2023-04-15T01:16:01;6.20;1.00
31597;DHT22;18201;50.978;7.034;2023-04-15T01:16:33;6.20;1.00
31597;DHT22;18201;50.978;7.034;2023-04-15T01:17:04;6.10;1.00
31597;DHT22;18201;50.978;7.034;2023-04-15T01:17:35;6.10;1.00
31597;DHT22;18201;50.978;7.034;2023-04-15T01:18:07;6.10;1.00
31597;DHT22;18201;50.978;7.034;2023-04-15T01:18:39;6.10;1.00
31597;DHT22;18201;50.978;7.034;2023-04-15T01:19:11;6.10;1.00
31597;DHT22;18201;50.978;7.034;2023-04-15T01:19:45;6.10;1.00
31597;DHT22;18201;50.978;7.034;2023-04-15T01:20:16;6.10;1.00
31597;DHT22;18201;50.978;7.034;2023-04-15T01:20:47;6.00;1.00
31597;DHT22;18201;50.978;7.034;2023-04-15T01:21:19;6.00;1.00
31597;DHT22;18201;50.978;7.034;2023-04-15T01:21:51;6.00;1.00
31597;DHT22;18201;50.978;7.034;2023-04-15T01:22:23;6.00;1.00
31597;DHT22;18201;50.978;7.034;2023-04-15T01:22:54;6.00;1.00
31597;DHT22;18201;50.978;7.034;2023-04-15T01:23:26;5.90;1.00
31597;DHT22;18201;50.978;7.034;2023-04-15T01:23:58;5.90;1.00
31597;DHT22;18201;50.978;7.034;2023-04-15T01:24:31;5.90;1.00
31597;DHT22;18201;50.978;7.034;2023-04-15T01:25:11;5.90;1.00
31597;DHT22;18201;50.978;7.034;2023-04-15T01:25:44;5.90;1.00
31597;DHT22;18201;50.978;7.034;2023-04-15T01:26:16;5.90;1.00
31597;DHT22;18201;50.978;7.034;2023-04-15T01:26:48;5.90;1.00
31597;DHT22;18201;50.978;7.034;2023-04-15T01:27:20;5.90;1.00
31597;DHT22;18201;50.978;7.034;2023-04-15T01:27:51;5.90;1.00
31597;DHT22;18201;50.978;7.034;2023-04-15T01:28:22;5.90;1.00
31597;DHT22;18201;50.978;7.034;2023-04-15T01:28:54;5.80;1.00
31597;DHT22;18201;50.978;7.034;2023-04-15T01:29:26;5.80;1.00
31597;DHT22;18201;50.978;7.034;2023-04-15T01:29:57;5.80;1.00
31597;DHT22;18201;50.978;7.034;2023-04-15T01:30:28;5.80;1.00
31597;DHT22;18201;50.978;7.034;2023-04-15T01:31:07;5.80;1.00
31597;DHT22;18201;50.978;7.034;2023-04-15T01:31:38;5.80;1.00
31597;DHT22;18201;50.978;7.034;2023-04-15T01:32:09;5.80;1.00
31597;DHT22;18201;50.978;7.034;2023-04-15T01:32:41;5.80;1.00
31597;DHT22;18201;50.978;7.034;2023-04-15T01:33:12;5.80;1.00
31597;DHT22;18201;50.978;7.034;2023-04-15T01:33:43;5.80;1.00
31597;DHT22;18201;50.978;7.034;2023-04-15T01:34:15;5.70;1.00
31597;DHT22;18201;50.978;7.034;2023-04-15T01:34:46;5.80;1.00
31597;DHT22;18201;50.978;7.034;2023-04-15T01:35:17;5.80;1.00
31597;DHT22;18201;50.978;7.034;2023-04-15T01:35:49;5.70;1.00
31597;DHT22;18201;50.978;7.034;2023-04-15T01:36:20;5.80;1.00
31597;DHT22;18201;50.978;7.034;2023-04-15T01:36:51;5.80;1.00
31597;DHT22;18201;50.978;7.034;2023-04-15T01:37:22;5.70;1.00
31597;DHT22;18201;50.978;7.034;2023-04-15T01:37:54;5.80;1.00
31597;DHT22;18201;50.978;7.034;2023-04-15T01:38:29;5.80;1.00
31597;DHT22;18201;50.978;7.034;2023-04-15T01:39:00;5.80;1.00
31597;DHT22;18201;50.978;7.034;2023-04-15T01:39:32;5.80;1.00
31597;DHT22;18201;50.978;7.034;2023-04-15T01:40:05;5.80;1.00
31597;DHT22;18201;50.978;7.034;2023-04-15T01:40:36;5.80;1.00
31597;DHT22;18201;50.978;7.034;2023-04-15T01:41:08;5.80;1.00
31597;DHT22;18201;50.978;7.034;2023-04-15T01:41:40;5.80;1.00
31597;DHT22;18201;50.978;7.034;2023-04-15T01:42:11;5.70;1.00
31597;DHT22;18201;50.978;7.034;2023-04-15T01:42:42;5.80;1.00
31597;DHT22;18201;50.978;7.034;2023-04-15T01:43:14;5.80;1.00
31597;DHT22;18201;50.978;7.034;2023-04-15T01:43:45;5.70;1.00
31597;DHT22;18201;50.978;7.034;2023-04-15T01:44:18;5.70;1.00
31597;DHT22;18201;50.978;7.034;2023-04-15T01:44:50;5.70;1.00
31597;DHT22;18201;50.978;7.034;2023-04-15T01:45:21;5.70;1.00
31597;DHT22;18201;50.978;7.034;2023-04-15T01:45:52;5.70;1.00
31597;DHT22;18201;50.978;7.034;2023-04-15T01:46:23;5.70;1.00
31597;DHT22;18201;50.978;7.034;2023-04-15T01:46:59;5.70;1.00
31597;DHT22;18201;50.978;7.034;2023-04-15T01:47:33;5.70;1.00
31597;DHT22;18201;50.978;7.034;2023-04-15T01:48:05;5.70;1.00
31597;DHT22;18201;50.978;7.034;2023-04-15T01:48:37;5.70;1.00
31597;DHT22;18201;50.978;7.034;2023-04-15T01:49:10;5.70;1.00
31597;DHT22;18201;50.978;7.034;2023-04-15T01:49:41;5.70;1.00
31597;DHT22;18201;50.978;7.034;2023-04-15T01:50:12;5.70;1.00
31597;DHT22;18201;50.978;7.034;2023-04-15T01:50:44;5.70;1.00
31597;DHT22;18201;50.978;7.034;2023-04-15T01:51:15;5.70;1.00
31597;DHT22;18201;50.978;7.034;2023-04-15T01:51:47;5.70;1.00
31597;DHT22;18201;50.978;7.034;2023-04-15T01:52:19;5.70;1.00
31597;DHT22;18201;50.978;7.034;2023-04-15T01:52:50;5.70;1.00
31597;DHT22;18201;50.978;7.034;2023-04-15T01:53:20;5.70;1.00
31597;DHT22;18201;50.978;7.034;2023-04-15T01:53:53;5.70;1.00
31597;DHT22;18201;50.978;7.034;2023-04-15T01:54:26;5.70;1.00
31597;DHT22;18201;50.978;7.034;2023-04-15T01:54:57;5.70;1.00
31597;DHT22;18201;50.978;7.034;2023-04-15T01:55:29;5.70;1.00
31597;DHT22;18201;50.978;7.034;2023-04-15T01:56:00;5.70;1.00
31597;DHT22;18201;50.978;7.034;2023-04-15T01:56:33;5.60;1.00
31597;DHT22;18201;50.978;7.034;2023-04-15T01:57:04;5.60;1.00
31597;DHT22;18201;50.978;7.034;2023-04-15T01:57:35;5.70;1.00
31597;DHT22;18201;50.978;7.034;2023-04-15T01:58:06;5.60;1.00
31597;DHT22;18201;50.978;7.034;2023-04-15T01:58:38;5.60;1.00
31597;DHT22;18201;50.978;7.034;2023-04-15T01:59:09;5.60;1.00
31597;DHT22;18201;50.978;7.034;2023-04-15T01:59:42;5.60;1.00
31597;DHT22;18201;50.978;7.034;2023-04-15T02:00:14;5.60;1.00
31597;DHT22;18201;50.978;7.034;2023-04-15T02:00:47;5.60;1.00
31597;DHT22;18201;50.978;7.034;2023-04-15T02:01:18;5.60;1.00
31597;DHT22;18201;50.978;7.034;2023-04-15T02:01:50;5.60;1.00
31597;DHT22;18201;50.978;7.034;2023-04-15T02:02:21;5.60;1.00
31597;DHT22;18201;50.978;7.034;2023-04-15T02:02:52;5.60;1.00
31597;DHT22;18201;50.978;7.034;2023-04-15T02:03:25;5.60;1.00
31597;DHT22;18201;50.978;7.034;2023-04-15T02:03:56;5.60;1.00
31597;DHT22;18201;50.978;7.034;2023-04-15T02:04:27;5.50;1.00
31597;DHT22;18201;50.978;7.034;2023-04-15T02:04:59;5.50;1.00
31597;DHT22;18201;50.978;7.034;2023-04-15T02:05:31;5.50;1.00
31597;DHT22;18201;50.978;7.034;2023-04-15T02:06:02;5.50;1.00
31597;DHT22;18201;50.978;7.034;2023-04-15T02:06:34;5.50;1.00
31597;DHT22;18201;50.978;7.034;2023-04-15T02:07:05;5.50;1.00
31597;DHT22;18201;50.978;7.034;2023-04-15T02:07:36;5.40;1.00
31597;DHT22;18201;50.978;7.034;2023-04-15T02:08:08;5.50;1.00
31597;DHT22;18201;50.978;7.034;2023-04-15T02:08:39;5.50;1.00
31597;DHT22;18201;50.978;7.034;2023-04-15T02:09:10;5.50;1.00
31597;DHT22;18201;50.978;7.034;2023-04-15T02:09:42;5.40;1.00
31597;DHT22;18201;50.978;7.034;2023-04-15T02:10:15;5.40;1.00
31597;DHT22;18201;50.978;7.034;2023-04-15T02:10:46;5.40;1.00
31597;DHT22;18201;50.978;7.034;2023-04-15T02:11:18;5.40;1.00
31597;DHT22;18201;50.978;7.034;2023-04-15T02:11:51;5.40;1.00
31597;DHT22;18201;50.978;7.034;2023-04-15T02:12:23;5.40;1.00
31597;DHT22;18201;50.978;7.034;2023-04-15T02:12:55;5.40;1.00
31597;DHT22;18201;50.978;7.034;2023-04-15T02:13:26;5.40;1.00
31597;DHT22;18201;50.978;7.034;2023-04-15T02:13:56;5.40;1.00
31597;DHT22;18201;50.978;7.034;2023-04-15T02:14:28;5.40;1.00
31597;DHT22;18201;50.978;7.034;2023-04-15T02:15:02;5.40;1.00
31597;DHT22;18201;50.978;7.034;2023-04-15T02:15:33;5.40;1.00
31597;DHT22;18201;50.978;7.034;2023-04-15T02:16:15;5.40;1.00
31597;DHT22;18201;50.978;7.034;2023-04-15T02:16:46;5.40;1.00
31597;DHT22;18201;50.978;7.034;2023-04-15T02:17:17;5.30;1.00
31597;DHT22;18201;50.978;7.034;2023-04-15T02:17:48;5.30;1.00
31597;DHT22;18201;50.978;7.034;2023-04-15T02:18:22;5.30;1.00
31597;DHT22;18201;50.978;7.034;2023-04-15T02:18:52;5.30;1.00
31597;DHT22;18201;50.978;7.034;2023-04-15T02:19:23;5.30;1.00
31597;DHT22;18201;50.978;7.034;2023-04-15T02:19:55;5.30;1.00
31597;DHT22;18201;50.978;7.034;2023-04-15T02:20:26;5.30;1.00
31597;DHT22;18201;50.978;7.034;2023-04-15T02:20:57;5.30;1.00
31597;DHT22;18201;50.978;7.034;2023-04-15T02:21:29;5.20;1.00
31597;DHT22;18201;50.978;7.034;2023-04-15T02:22:00;5.20;1.00
31597;DHT22;18201;50.978;7.034;2023-04-15T02:22:31;5.20;1.00
31597;DHT22;18201;50.978;7.034;2023-04-15T02:23:03;5.20;1.00
31597;DHT22;18201;50.978;7.034;2023-04-15T02:23:36;5.20;1.00
31597;DHT22;18201;50.978;7.034;2023-04-15T02:24:07;5.20;1.00
31597;DHT22;18201;50.978;7.034;2023-04-15T02:24:39;5.20;1.00
31597;DHT22;18201;50.978;7.034;2023-04-15T02:25:10;5.20;1.00
31597;DHT22;18201;50.978;7.034;2023-04-15T02:25:41;5.20;3.10
31597;DHT22;18201;50.978;7.034;2023-04-15T02:26:12;5.20;5.00
31597;DHT22;18201;50.978;7.034;2023-04-15T02:26:43;5.10;6.30
31597;DHT22;18201;50.978;7.034;2023-04-15T02:27:16;5.20;4.20
31597;DHT22;18201;50.978;7.034;2023-04-15T02:27:47;5.10;7.10
31597;DHT22;18201;50.978;7.034;2023-04-15T02:28:19;5.20;9.50
31597;DHT22;18201;50.978;7.034;2023-04-15T02:28:50;5.20;11.50
31597;DHT22;18201;50.978;7.034;2023-04-15T02:29:21;5.10;12.40
31597;DHT22;18201;50.978;7.034;2023-04-15T02:29:53;5.20;12.10
31597;DHT22;18201;50.978;7.034;2023-04-15T02:30:28;5.20;14.00
31597;DHT22;18201;50.978;7.034;2023-04-15T02:30:59;5.10;15.50
31597;DHT22;18201;50.978;7.034;2023-04-15T02:31:31;5.10;16.40
31597;DHT22;18201;50.978;7.034;2023-04-15T02:32:06;5.10;17.50
31597;DHT22;18201;50.978;7.034;2023-04-15T02:32:37;5.10;16.60
31597;DHT22;18201;50.978;7.034;2023-04-15T02:33:08;5.10;16.80
31597;DHT22;18201;50.978;7.034;2023-04-15T02:33:40;5.10;17.40
31597;DHT22;18201;50.978;7.034;2023-04-15T02:34:11;5.10;18.00
31597;DHT22;18201;50.978;7.034;2023-04-15T02:34:43;5.10;19.00
31597;DHT22;18201;50.978;7.034;2023-04-15T02:35:15;5.10;18.80
31597;DHT22;18201;50.978;7.034;2023-04-15T02:35:48;5.10;16.90
31597;DHT22;18201;50.978;7.034;2023-04-15T02:36:20;5.10;16.60
31597;DHT22;18201;50.978;7.034;2023-04-15T02:36:53;5.10;16.60
31597;DHT22;18201;50.978;7.034;2023-04-15T02:37:26;5.10;16.90
31597;DHT22;18201;50.978;7.034;2023-04-15T02:37:58;5.10;12.20
31597;DHT22;18201;50.978;7.034;2023-04-15T02:38:30;5.00;10.00
31597;DHT22;18201;50.978;7.034;2023-04-15T02:39:01;5.00;8.90
31597;DHT22;18201;50.978;7.034;2023-04-15T02:39:33;5.00;5.70
31597;DHT22;18201;50.978;7.034;2023-04-15T02:40:07;5.00;4.20
31597;DHT22;18201;50.978;7.034;2023-04-15T02:40:37;5.00;1.30
31597;DHT22;18201;50.978;7.034;2023-04-15T02:41:08;5.00;6.10
31597;DHT22;18201;50.978;7.034;2023-04-15T02:41:40;5.00;10.50
31597;DHT22;18201;50.978;7.034;2023-04-15T02:42:13;5.00;11.30
31597;DHT22;18201;50.978;7.034;2023-04-15T02:42:45;5.00;10.60
31597;DHT22;18201;50.978;7.034;2023-04-15T02:43:17;5.00;11.50
31597;DHT22;18201;50.978;7.034;2023-04-15T02:43:48;4.90;11.90
31597;DHT22;18201;50.978;7.034;2023-04-15T02:44:18;4.90;14.80
31597;DHT22;18201;50.978;7.034;2023-04-15T02:44:51;4.90;11.60
31597;DHT22;18201;50.978;7.034;2023-04-15T02:45:23;4.90;13.70
31597;DHT22;18201;50.978;7.034;2023-04-15T02:45:57;4.90;15.00
31597;DHT22;18201;50.978;7.034;2023-04-15T02:46:28;4.90;19.60
31597;DHT22;18201;50.978;7.034;2023-04-15T02:47:00;4.90;25.30
31597;DHT22;18201;50.978;7.034;2023-04-15T02:47:31;4.90;25.80
31597;DHT22;18201;50.978;7.034;2023-04-15T02:48:03;4.90;36.10
31597;DHT22;18201;50.978;7.034;2023-04-15T02:48:35;4.90;43.40
31597;DHT22;18201;50.978;7.034;2023-04-15T02:49:06;4.90;46.90
31597;DHT22;18201;50.978;7.034;2023-04-15T02:49:38;4.80;47.30
31597;DHT22;18201;50.978;7.034;2023-04-15T02:50:11;4.80;52.20
31597;DHT22;18201;50.978;7.034;2023-04-15T02:50:42;4.80;54.30
31597;DHT22;18201;50.978;7.034;2023-04-15T02:51:15;4.80;56.00
31597;DHT22;18201;50.978;7.034;2023-04-15T02:51:49;4.80;57.70
31597;DHT22;18201;50.978;7.034;2023-04-15T02:52:20;4.80;56.50
31597;DHT22;18201;50.978;7.034;2023-04-15T02:52:53;4.80;58.40
31597;DHT22;18201;50.978;7.034;2023-04-15T02:53:24;4.80;60.00
31597;DHT22;18201;50.978;7.034;2023-04-15T02:53:56;4.80;62.00
31597;DHT22;18201;50.978;7.034;2023-04-15T02:54:28;4.80;63.30
31597;DHT22;18201;50.978;7.034;2023-04-15T02:54:59;4.80;59.40
31597;DHT22;18201;50.978;7.034;2023-04-15T02:55:32;4.80;60.20
31597;DHT22;18201;50.978;7.034;2023-04-15T02:56:04;4.80;60.10
31597;DHT22;18201;50.978;7.034;2023-04-15T02:56:35;4.70;60.50
31597;DHT22;18201;50.978;7.034;2023-04-15T02:57:06;4.70;60.50
31597;DHT22;18201;50.978;7.034;2023-04-15T02:57:38;4.70;57.80
31597;DHT22;18201;50.978;7.034;2023-04-15T02:58:11;4.70;61.90
31597;DHT22;18201;50.978;7.034;2023-04-15T02:58:43;4.70;61.90
31597;DHT22;18201;50.978;7.034;2023-04-15T02:59:15;4.70;59.80
31597;DHT22;18201;50.978;7.034;2023-04-15T02:59:46;4.70;60.10
31597;DHT22;18201;50.978;7.034;2023-04-15T03:00:17;4.70;62.50
31597;DHT22;18201;50.978;7.034;2023-04-15T03:00:52;4.70;70.10
31597;DHT22;18201;50.978;7.034;2023-04-15T03:01:24;4.70;76.50
31597;DHT22;18201;50.978;7.034;2023-04-15T03:01:55;4.70;86.30
31597;DHT22;18201;50.978;7.034;2023-04-15T03:02:33;4.60;91.70
31597;DHT22;18201;50.978;7.034;2023-04-15T03:03:05;4.60;97.00
31597;DHT22;18201;50.978;7.034;2023-04-15T03:03:36;4.60;99.90
31597;DHT22;18201;50.978;7.034;2023-04-15T03:04:07;4.60;99.90
31597;DHT22;18201;50.978;7.034;2023-04-15T03:04:39;4.60;99.90
31597;DHT22;18201;50.978;7.034;2023-04-15T03:05:11;4.60;99.90
31597;DHT22;18201;50.978;7.034;2023-04-15T03:05:43;4.60;99.90
31597;DHT22;18201;50.978;7.034;2023-04-15T03:06:15;4.50;99.90
31597;DHT22;18201;50.978;7.034;2023-04-15T03:06:46;4.50;99.90
31597;DHT22;18201;50.978;7.034;2023-04-15T03:07:17;4.50;99.90
31597;DHT22;18201;50.978;7.034;2023-04-15T03:07:49;4.50;99.90
31597;DHT22;18201;50.978;7.034;2023-04-15T03:08:19;4.50;99.90
31597;DHT22;18201;50.978;7.034;2023-04-15T03:08:50;4.40;99.90
31597;DHT22;18201;50.978;7.034;2023-04-15T03:09:22;4.40;99.90
31597;DHT22;18201;50.978;7.034;2023-04-15T03:09:53;4.40;99.90
31597;DHT22;18201;50.978;7.034;2023-04-15T03:10:24;4.40;99.90
31597;DHT22;18201;50.978;7.034;2023-04-15T03:10:57;4.30;99.90
31597;DHT22;18201;50.978;7.034;2023-04-15T03:11:30;4.30;99.90
31597;DHT22;18201;50.978;7.034;2023-04-15T03:12:02;4.30;99.90
31597;DHT22;18201;50.978;7.034;2023-04-15T03:12:33;4.30;99.90
31597;DHT22;18201;50.978;7.034;2023-04-15T03:13:05;4.30;99.90
31597;DHT22;18201;50.978;7.034;2023-04-15T03:13:37;4.30;99.90
31597;DHT22;18201;50.978;7.034;2023-04-15T03:14:09;4.30;99.90
31597;DHT22;18201;50.978;7.034;2023-04-15T03:14:40;4.30;99.90
31597;DHT22;18201;50.978;7.034;2023-04-15T03:15:11;4.30;99.90
31597;DHT22;18201;50.978;7.034;2023-04-15T03:15:42;4.30;99.90
31597;DHT22;18201;50.978;7.034;2023-04-15T03:16:14;4.30;99.90
31597;DHT22;18201;50.978;7.034;2023-04-15T03:16:45;4.30;99.90
31597;DHT22;18201;50.978;7.034;2023-04-15T03:17:16;4.30;99.90
31597;DHT22;18201;50.978;7.034;2023-04-15T03:17:48;4.40;99.90
31597;DHT22;18201;50.978;7.034;2023-04-15T03:18:19;4.40;99.90
31597;DHT22;18201;50.978;7.034;2023-04-15T03:18:50;4.40;99.90
31597;DHT22;18201;50.978;7.034;2023-04-15T03:19:21;4.40;99.90
31597;DHT22;18201;50.978;7.034;2023-04-15T03:19:52;4.40;99.90
31597;DHT22;18201;50.978;7.034;2023-04-15T03:20:29;4.40;99.90
31597;DHT22;18201;50.978;7.034;2023-04-15T03:21:01;4.40;99.90
31597;DHT22;18201;50.978;7.034;2023-04-15T03:21:33;4.40;99.90
31597;DHT22;18201;50.978;7.034;2023-04-15T03:22:04;4.50;99.90
31597;DHT22;18201;50.978;7.034;2023-04-15T03:22:35;4.50;99.90
31597;DHT22;18201;50.978;7.034;2023-04-15T03:23:06;4.50;99.90
31597;DHT22;18201;50.978;7.034;2023-04-15T03:23:43;4.50;99.90
31597;DHT22;18201;50.978;7.034;2023-04-15T03:24:14;4.50;99.90
31597;DHT22;18201;50.978;7.034;2023-04-15T03:24:46;4.50;99.90
31597;DHT22;18201;50.978;7.034;2023-04-15T03:25:16;4.50;99.90
31597;DHT22;18201;50.978;7.034;2023-04-15T03:25:47;4.40;99.90